sensor_id;sensor_type;location;lat;lon;timestamp;pressure;altitude;pressure_sealevel;temperature;humidity
36726;BME280;44936;52.086;5.150;2023-06-10T00:02:16;102098.56;;;19.20;100.00
36726;BME280;44936;52.086;5.150;2023-06-10T00:04:42;102120.75;;;19.18;100.00
36726;BME280;44936;52.086;5.150;2023-06-10T00:07:08;102130.53;;;19.14;100.00
36726;BME280;44936;52.086;5.150;2023-06-10T00:09:36;102140.28;;;19.14;100.00
36726;BME280;44936;52.086;5.150;2023-06-10T00:12:04;102086.28;;;19.09;100.00
36726;BME280;44936;52.086;5.150;2023-06-10T00:14:30;102052.78;;;18.94;100.00
36726;BME280;44936;52.086;5.150;2023-06-10T00:16:55;102141.28;;;19.05;100.00
36726;BME280;44936;52.086;5.150;2023-06-10T00:19:23;102133.31;;;19.04;100.00
36726;BME280;44936;52.086;5.150;2023-06-10T00:21:51;102130.69;;;19.02;100.00
36726;BME280;44936;52.086;5.150;2023-06-10T00:24:20;102154.66;;;18.98;100.00
36726;BME280;44936;52.086;5.150;2023-06-10T00:26:45;102117.53;;;18.88;100.00
36726;BME280;44936;52.086;5.150;2023-06-10T00:29:11;102105.09;;;18.90;100.00
36726;BME280;44936;52.086;5.150;2023-06-10T00:31:37;102124.59;;;18.92;100.00
36726;BME280;44936;52.086;5.150;2023-06-10T00:34:03;102106.94;;;18.85;100.00
36726;BME280;44936;52.086;5.150;2023-06-10T00:36:29;102119.41;;;18.82;100.00
36726;BME280;44936;52.086;5.150;2023-06-10T00:38:55;102172.47;;;18.91;100.00
36726;BME280;44936;52.086;5.150;2023-06-10T00:41:20;102136.16;;;18.87;100.00
36726;BME280;44936;52.086;5.150;2023-06-10T00:43:45;102134.59;;;18.67;100.00
36726;BME280;44936;52.086;5.150;2023-06-10T00:46:11;102119.56;;;18.65;100.00
36726;BME280;44936;52.086;5.150;2023-06-10T00:48:38;102126.56;;;18.75;100.00
36726;BME280;44936;52.086;5.150;2023-06-10T00:51:05;102163.72;;;18.78;100.00
36726;BME280;44936;52.086;5.150;2023-06-10T00:53:31;102131.88;;;18.75;100.00
36726;BME280;44936;52.086;5.150;2023-06-10T00:55:57;102113.25;;;18.75;100.00
36726;BME280;44936;52.086;5.150;2023-06-10T00:58:24;102111.50;;;18.73;100.00
36726;BME280;44936;52.086;5.150;2023-06-10T01:00:51;102113.28;;;18.72;100.00
36726;BME280;44936;52.086;5.150;2023-06-10T01:03:16;102146.09;;;18.70;100.00
36726;BME280;44936;52.086;5.150;2023-06-10T01:05:42;102129.28;;;18.67;100.00
36726;BME280;44936;52.086;5.150;2023-06-10T01:11:00;102042.63;;;18.50;100.00
36726;BME280;44936;52.086;5.150;2023-06-10T01:13:27;102135.50;;;18.62;100.00
36726;BME280;44936;52.086;5.150;2023-06-10T01:15:58;102130.25;;;18.56;100.00
36726;BME280;44936;52.086;5.150;2023-06-10T01:18:29;102140.91;;;18.56;100.00
36726;BME280;44936;52.086;5.150;2023-06-10T01:20:56;102047.97;;;18.48;100.00
36726;BME280;44936;52.086;5.150;2023-06-10T01:23:25;102079.78;;;18.53;100.00
36726;BME280;44936;52.086;5.150;2023-06-10T01:26:06;102067.41;;;18.52;100.00
36726;BME280;44936;52.086;5.150;2023-06-10T01:31:12;102125.03;;;18.47;100.00
36726;BME280;44936;52.086;5.150;2023-06-10T01:33:43;102130.34;;;18.47;100.00
36726;BME280;44936;52.086;5.150;2023-06-10T01:36:09;102085.25;;;18.39;100.00
36726;BME280;44936;52.086;5.150;2023-06-10T01:38:39;102096.84;;;18.30;100.00
36726;BME280;44936;52.086;5.150;2023-06-10T01:41:06;102130.38;;;18.42;100.00
36726;BME280;44936;52.086;5.150;2023-06-10T01:43:37;102151.66;;;18.37;100.00
36726;BME280;44936;52.086;5.150;2023-06-10T01:46:04;102117.16;;;18.34;100.00
36726;BME280;44936;52.086;5.150;2023-06-10T01:48:29;102080.88;;;18.33;100.00
36726;BME280;44936;52.086;5.150;2023-06-10T01:50:55;102072.03;;;18.33;100.00
36726;BME280;44936;52.086;5.150;2023-06-10T01:53:22;102132.25;;;18.31;100.00
36726;BME280;44936;52.086;5.150;2023-06-10T01:55:47;102076.56;;;18.22;100.00
36726;BME280;44936;52.086;5.150;2023-06-10T01:58:15;102062.31;;;18.27;100.00
36726;BME280;44936;52.086;5.150;2023-06-10T02:00:41;102059.69;;;18.26;100.00
36726;BME280;44936;52.086;5.150;2023-06-10T02:03:06;102077.47;;;18.18;100.00
36726;BME280;44936;52.086;5.150;2023-06-10T02:05:32;102096.06;;;18.21;100.00
36726;BME280;44936;52.086;5.150;2023-06-10T02:07:57;102070.41;;;18.15;100.00
36726;BME280;44936;52.086;5.150;2023-06-10T02:10:23;102092.53;;;18.17;100.00
36726;BME280;44936;52.086;5.150;2023-06-10T02:12:51;102093.50;;;18.07;100.00
36726;BME280;44936;52.086;5.150;2023-06-10T02:15:16;102056.31;;;18.08;100.00
36726;BME280;44936;52.086;5.150;2023-06-10T02:17:42;102113.81;;;18.13;100.00
36726;BME280;44936;52.086;5.150;2023-06-10T02:20:07;102125.38;;;18.05;100.00
36726;BME280;44936;52.086;5.150;2023-06-10T02:22:36;102125.31;;;18.10;100.00
36726;BME280;44936;52.086;5.150;2023-06-10T02:25:02;102084.72;;;17.99;100.00
36726;BME280;44936;52.086;5.150;2023-06-10T02:27:29;102089.13;;;18.03;100.00
36726;BME280;44936;52.086;5.150;2023-06-10T02:29:56;102083.78;;;18.06;100.00
36726;BME280;44936;52.086;5.150;2023-06-10T02:32:21;102105.06;;;18.00;100.00
36726;BME280;44936;52.086;5.150;2023-06-10T02:34:47;102120.09;;;18.01;100.00
36726;BME280;44936;52.086;5.150;2023-06-10T02:37:14;102067.91;;;17.97;100.00
36726;BME280;44936;52.086;5.150;2023-06-10T02:39:40;102065.31;;;17.94;100.00
36726;BME280;44936;52.086;5.150;2023-06-10T02:42:05;102182.94;;;17.99;100.00
36726;BME280;44936;52.086;5.150;2023-06-10T02:44:31;102137.84;;;17.93;100.00
36726;BME280;44936;52.086;5.150;2023-06-10T02:46:57;102120.13;;;17.93;100.00
36726;BME280;44936;52.086;5.150;2023-06-10T02:49:22;102073.31;;;17.88;100.00
36726;BME280;44936;52.086;5.150;2023-06-10T02:51:48;102125.50;;;17.87;100.00
36726;BME280;44936;52.086;5.150;2023-06-10T02:54:19;102176.81;;;17.89;100.00
36726;BME280;44936;52.086;5.150;2023-06-10T02:56:44;102095.44;;;17.85;100.00
36726;BME280;44936;52.086;5.150;2023-06-10T02:59:11;102141.44;;;17.86;100.00
36726;BME280;44936;52.086;5.150;2023-06-10T03:01:36;102120.19;;;17.84;100.00
36726;BME280;44936;52.086;5.150;2023-06-10T03:04:04;102130.84;;;17.82;100.00
36726;BME280;44936;52.086;5.150;2023-06-10T03:06:30;102175.06;;;17.83;100.00
36726;BME280;44936;52.086;5.150;2023-06-10T03:09:02;102172.47;;;17.77;100.00
36726;BME280;44936;52.086;5.150;2023-06-10T03:11:32;102168.03;;;17.66;100.00
36726;BME280;44936;52.086;5.150;2023-06-10T03:13:58;102102.59;;;17.69;100.00
36726;BME280;44936;52.086;5.150;2023-06-10T03:16:23;102160.06;;;17.73;100.00
36726;BME280;44936;52.086;5.150;2023-06-10T03:18:50;102145.06;;;17.71;100.00
36726;BME280;44936;52.086;5.150;2023-06-10T03:21:16;102161.88;;;17.71;100.00
36726;BME280;44936;52.086;5.150;2023-06-10T03:23:41;102137.97;;;17.67;100.00
36726;BME280;44936;52.086;5.150;2023-06-10T03:26:08;102124.75;;;17.62;100.00
36726;BME280;44936;52.086;5.150;2023-06-10T03:28:35;102191.03;;;17.67;100.00
36726;BME280;44936;52.086;5.150;2023-06-10T03:31:00;102201.66;;;17.64;100.00
36726;BME280;44936;52.086;5.150;2023-06-10T03:33:26;102182.22;;;17.63;100.00
36726;BME280;44936;52.086;5.150;2023-06-10T03:35:51;102158.38;;;17.60;100.00
36726;BME280;44936;52.086;5.150;2023-06-10T03:38:17;102157.50;;;17.55;100.00
36726;BME280;44936;52.086;5.150;2023-06-10T03:40:42;102160.13;;;17.60;100.00
36726;BME280;44936;52.086;5.150;2023-06-10T03:43:07;102158.34;;;17.57;100.00
36726;BME280;44936;52.086;5.150;2023-06-10T03:45:33;102184.88;;;17.57;100.00
36726;BME280;44936;52.086;5.150;2023-06-10T03:47:58;102187.56;;;17.60;100.00
36726;BME280;44936;52.086;5.150;2023-06-10T03:50:25;102177.81;;;17.61;100.00
36726;BME280;44936;52.086;5.150;2023-06-10T03:52:51;102233.53;;;17.62;100.00
36726;BME280;44936;52.086;5.150;2023-06-10T03:55:17;102184.03;;;17.58;100.00
36726;BME280;44936;52.086;5.150;2023-06-10T03:57:43;102174.31;;;17.51;100.00
36726;BME280;44936;52.086;5.150;2023-06-10T04:00:09;102161.03;;;17.55;100.00
36726;BME280;44936;52.086;5.150;2023-06-10T04:02:40;102177.81;;;17.62;100.00
36726;BME280;44936;52.086;5.150;2023-06-10T04:05:14;102149.50;;;17.63;100.00
36726;BME280;44936;52.086;5.150;2023-06-10T04:07:39;102179.59;;;17.60;100.00
36726;BME280;44936;52.086;5.150;2023-06-10T04:10:09;102227.28;;;17.66;100.00
36726;BME280;44936;52.086;5.150;2023-06-10T04:12:35;102226.44;;;17.67;100.00
36726;BME280;44936;52.086;5.150;2023-06-10T04:15:01;102170.72;;;17.67;100.00
36726;BME280;44936;52.086;5.150;2023-06-10T04:17:27;102181.34;;;17.70;100.00
36726;BME280;44936;52.086;5.150;2023-06-10T04:19:52;102186.63;;;17.70;100.00
36726;BME280;44936;52.086;5.150;2023-06-10T04:22:20;102214.94;;;17.73;100.00
36726;BME280;44936;52.086;5.150;2023-06-10T04:24:45;102154.78;;;17.67;100.00
36726;BME280;44936;52.086;5.150;2023-06-10T04:27:11;102207.84;;;17.73;100.00
36726;BME280;44936;52.086;5.150;2023-06-10T04:29:36;102210.47;;;17.79;100.00
36726;BME280;44936;52.086;5.150;2023-06-10T04:32:01;102193.66;;;17.79;100.00
36726;BME280;44936;52.086;5.150;2023-06-10T04:34:27;102179.50;;;17.80;100.00
36726;BME280;44936;52.086;5.150;2023-06-10T04:36:53;102167.09;;;17.83;100.00
36726;BME280;44936;52.086;5.150;2023-06-10T04:39:20;102180.38;;;17.87;100.00
36726;BME280;44936;52.086;5.150;2023-06-10T04:41:46;102199.81;;;17.89;100.00
36726;BME280;44936;52.086;5.150;2023-06-10T04:44:12;102200.69;;;17.91;100.00
36726;BME280;44936;52.086;5.150;2023-06-10T04:46:37;102213.94;;;17.94;100.00
36726;BME280;44936;52.086;5.150;2023-06-10T04:49:03;102239.59;;;17.95;100.00
36726;BME280;44936;52.086;5.150;2023-06-10T04:51:30;102239.59;;;17.96;100.00
36726;BME280;44936;52.086;5.150;2023-06-10T04:53:55;102213.03;;;17.96;100.00
36726;BME280;44936;52.086;5.150;2023-06-10T04:56:21;102190.91;;;17.97;100.00
36726;BME280;44936;52.086;5.150;2023-06-10T04:58:47;102195.28;;;18.01;100.00
36726;BME280;44936;52.086;5.150;2023-06-10T05:01:12;102156.38;;;17.99;100.00
36726;BME280;44936;52.086;5.150;2023-06-10T05:03:37;102221.81;;;18.07;100.00
36726;BME280;44936;52.086;5.150;2023-06-10T05:06:03;102197.03;;;18.07;100.00
36726;BME280;44936;52.086;5.150;2023-06-10T05:08:28;102175.84;;;17.99;100.00
36726;BME280;44936;52.086;5.150;2023-06-10T05:10:53;102193.47;;;18.13;100.00
36726;BME280;44936;52.086;5.150;2023-06-10T05:13:19;102193.44;;;18.17;100.00
36726;BME280;44936;52.086;5.150;2023-06-10T05:15:44;102174.84;;;18.17;100.00
36726;BME280;44936;52.086;5.150;2023-06-10T05:18:10;102186.31;;;18.24;100.00
36726;BME280;44936;52.086;5.150;2023-06-10T05:20:38;102169.50;;;18.23;100.00
36726;BME280;44936;52.086;5.150;2023-06-10T05:23:03;102153.53;;;18.26;100.00
36726;BME280;44936;52.086;5.150;2023-06-10T05:25:30;102179.19;;;18.26;100.00
36726;BME280;44936;52.086;5.150;2023-06-10T05:27:56;102194.22;;;18.33;100.00
36726;BME280;44936;52.086;5.150;2023-06-10T05:30:21;102171.19;;;18.32;100.00
36726;BME280;44936;52.086;5.150;2023-06-10T05:32:51;102224.22;;;18.43;100.00
36726;BME280;44936;52.086;5.150;2023-06-10T05:35:21;102181.78;;;18.39;100.00
36726;BME280;44936;52.086;5.150;2023-06-10T05:37:49;102190.56;;;18.45;100.00
36726;BME280;44936;52.086;5.150;2023-06-10T05:40:15;102153.44;;;18.38;100.00
36726;BME280;44936;52.086;5.150;2023-06-10T05:42:40;102183.47;;;18.45;100.00
36726;BME280;44936;52.086;5.150;2023-06-10T05:45:06;102168.38;;;18.52;100.00
36726;BME280;44936;52.086;5.150;2023-06-10T05:47:39;102183.41;;;18.56;100.00
36726;BME280;44936;52.086;5.150;2023-06-10T05:50:06;102183.38;;;18.59;100.00
36726;BME280;44936;52.086;5.150;2023-06-10T05:52:36;102173.63;;;18.58;100.00
36726;BME280;44936;52.086;5.150;2023-06-10T05:55:03;102176.22;;;18.64;100.00
36726;BME280;44936;52.086;5.150;2023-06-10T05:57:28;102165.72;;;18.52;100.00
36726;BME280;44936;52.086;5.150;2023-06-10T05:59:54;102201.03;;;18.69;100.00
36726;BME280;44936;52.086;5.150;2023-06-10T06:02:19;102162.91;;;18.72;100.00
36726;BME280;44936;52.086;5.150;2023-06-10T06:04:44;102158.47;;;18.72;100.00
36726;BME280;44936;52.086;5.150;2023-06-10T06:07:10;102134.63;;;18.61;100.00
36726;BME280;44936;52.086;5.150;2023-06-10T06:09:35;102197.41;;;18.78;100.00
36726;BME280;44936;52.086;5.150;2023-06-10T06:12:01;102177.88;;;18.82;100.00
36726;BME280;44936;52.086;5.150;2023-06-10T06:14:26;102151.38;;;18.71;100.00
36726;BME280;44936;52.086;5.150;2023-06-10T06:16:52;102198.13;;;18.93;100.00
36726;BME280;44936;52.086;5.150;2023-06-10T06:19:18;102203.47;;;18.89;100.00
36726;BME280;44936;52.086;5.150;2023-06-10T06:21:49;102183.88;;;18.99;100.00
36726;BME280;44936;52.086;5.150;2023-06-10T06:24:15;102161.78;;;18.94;100.00
36726;BME280;44936;52.086;5.150;2023-06-10T06:26:41;102211.28;;;19.06;100.00
36726;BME280;44936;52.086;5.150;2023-06-10T06:29:06;102215.72;;;19.08;100.00
36726;BME280;44936;52.086;5.150;2023-06-10T06:31:31;102170.56;;;19.02;100.00
36726;BME280;44936;52.086;5.150;2023-06-10T06:33:57;102170.41;;;19.16;100.00
36726;BME280;44936;52.086;5.150;2023-06-10T06:36:22;102151.78;;;19.16;100.00
36726;BME280;44936;52.086;5.150;2023-06-10T06:38:50;102159.75;;;19.19;100.00
36726;BME280;44936;52.086;5.150;2023-06-10T06:41:16;102122.47;;;19.22;100.00
36726;BME280;44936;52.086;5.150;2023-06-10T06:43:41;102125.97;;;19.27;100.00
36726;BME280;44936;52.086;5.150;2023-06-10T06:46:08;102111.75;;;19.28;100.00
36726;BME280;44936;52.086;5.150;2023-06-10T06:48:33;102127.59;;;19.37;100.00
36726;BME280;44936;52.086;5.150;2023-06-10T06:50:59;102138.16;;;19.42;100.00
36726;BME280;44936;52.086;5.150;2023-06-10T06:53:25;102119.50;;;19.46;100.00
36726;BME280;44936;52.086;5.150;2023-06-10T06:55:50;102130.09;;;19.49;100.00
36726;BME280;44936;52.086;5.150;2023-06-10T06:58:16;102113.19;;;19.53;100.00
36726;BME280;44936;52.086;5.150;2023-06-10T07:00:42;102132.66;;;19.59;100.00
36726;BME280;44936;52.086;5.150;2023-06-10T07:03:07;102126.47;;;19.57;100.00
36726;BME280;44936;52.086;5.150;2023-06-10T07:05:32;102153.81;;;19.68;100.00
36726;BME280;44936;52.086;5.150;2023-06-10T07:07:58;102160.16;;;19.58;100.00
36726;BME280;44936;52.086;5.150;2023-06-10T07:10:24;102159.88;;;19.77;100.00
36726;BME280;44936;52.086;5.150;2023-06-10T07:12:50;102134.16;;;19.78;100.00
36726;BME280;44936;52.086;5.150;2023-06-10T07:15:16;102135.81;;;19.85;100.00
36726;BME280;44936;52.086;5.150;2023-06-10T07:17:41;102133.13;;;19.87;100.00
36726;BME280;44936;52.086;5.150;2023-06-10T07:20:07;102115.41;;;19.86;100.00
36726;BME280;44936;52.086;5.150;2023-06-10T07:22:32;102131.22;;;19.95;100.00
36726;BME280;44936;52.086;5.150;2023-06-10T07:24:58;102128.44;;;20.02;100.00
36726;BME280;44936;52.086;5.150;2023-06-10T07:27:23;102132.84;;;20.06;100.00
36726;BME280;44936;52.086;5.150;2023-06-10T07:29:49;102115.91;;;20.11;100.00
36726;BME280;44936;52.086;5.150;2023-06-10T07:32:14;102109.59;;;20.16;100.00
36726;BME280;44936;52.086;5.150;2023-06-10T07:34:40;102116.63;;;20.20;100.00
36726;BME280;44936;52.086;5.150;2023-06-10T07:37:05;102121.91;;;20.23;100.00
36726;BME280;44936;52.086;5.150;2023-06-10T07:39:30;102120.91;;;20.29;100.00
36726;BME280;44936;52.086;5.150;2023-06-10T07:41:56;102081.88;;;20.26;100.00
36726;BME280;44936;52.086;5.150;2023-06-10T07:44:22;102101.16;;;20.41;100.00
36726;BME280;44936;52.086;5.150;2023-06-10T07:46:48;102121.53;;;20.46;100.00
36726;BME280;44936;52.086;5.150;2023-06-10T07:49:13;102082.41;;;20.48;100.00
36726;BME280;44936;52.086;5.150;2023-06-10T07:51:39;102091.09;;;20.58;100.00
36726;BME280;44936;52.086;5.150;2023-06-10T07:54:04;102103.44;;;20.63;100.00
36726;BME280;44936;52.086;5.150;2023-06-10T07:56:29;102105.22;;;20.64;100.00
36726;BME280;44936;52.086;5.150;2023-06-10T07:58:55;102083.56;;;20.81;100.00
36726;BME280;44936;52.086;5.150;2023-06-10T08:01:20;102109.31;;;20.82;100.00
36726;BME280;44936;52.086;5.150;2023-06-10T08:03:47;102094.00;;;20.92;100.00
36726;BME280;44936;52.086;5.150;2023-06-10T08:06:13;102109.00;;;20.98;100.00
36726;BME280;44936;52.086;5.150;2023-06-10T08:08:39;102114.25;;;21.02;100.00
36726;BME280;44936;52.086;5.150;2023-06-10T08:11:08;102072.56;;;20.98;100.00
36726;BME280;44936;52.086;5.150;2023-06-10T08:13:33;102101.56;;;21.15;100.00
36726;BME280;44936;52.086;5.150;2023-06-10T08:15:58;102056.22;;;21.13;100.00
36726;BME280;44936;52.086;5.150;2023-06-10T08:18:24;102096.91;;;21.25;100.00
36726;BME280;44936;52.086;5.150;2023-06-10T08:20:49;102070.16;;;21.26;100.00
36726;BME280;44936;52.086;5.150;2023-06-10T08:23:15;102061.75;;;21.46;100.00
36726;BME280;44936;52.086;5.150;2023-06-10T08:25:40;102070.31;;;21.60;100.00
36726;BME280;44936;52.086;5.150;2023-06-10T08:28:05;102090.72;;;21.63;100.00
36726;BME280;44936;52.086;5.150;2023-06-10T08:30:31;102091.38;;;21.72;100.00
36726;BME280;44936;52.086;5.150;2023-06-10T08:32:56;102053.88;;;21.78;100.00
36726;BME280;44936;52.086;5.150;2023-06-10T08:35:21;102044.41;;;22.01;100.00
36726;BME280;44936;52.086;5.150;2023-06-10T08:37:47;102093.25;;;22.06;100.00
36726;BME280;44936;52.086;5.150;2023-06-10T08:40:12;102077.94;;;22.14;100.00
36726;BME280;44936;52.086;5.150;2023-06-10T08:43:05;102060.00;;;22.19;100.00
36726;BME280;44936;52.086;5.150;2023-06-10T08:45:35;102025.94;;;22.27;100.00
36726;BME280;44936;52.086;5.150;2023-06-10T08:48:05;102037.94;;;22.44;100.00
36726;BME280;44936;52.086;5.150;2023-06-10T08:50:37;102051.81;;;22.58;100.00
36726;BME280;44936;52.086;5.150;2023-06-10T08:53:06;102043.59;;;22.66;100.00
36726;BME280;44936;52.086;5.150;2023-06-10T08:55:36;101998.38;;;22.89;100.00
36726;BME280;44936;52.086;5.150;2023-06-10T08:58:03;102008.97;;;22.92;100.00
36726;BME280;44936;52.086;5.150;2023-06-10T09:00:30;102008.34;;;23.12;100.00
36726;BME280;44936;52.086;5.150;2023-06-10T09:02:56;102012.31;;;23.28;100.00
36726;BME280;44936;52.086;5.150;2023-06-10T09:05:22;102008.53;;;23.35;100.00
36726;BME280;44936;52.086;5.150;2023-06-10T09:07:48;101969.25;;;23.64;100.00
36726;BME280;44936;52.086;5.150;2023-06-10T09:10:14;101960.78;;;23.76;100.00
36726;BME280;44936;52.086;5.150;2023-06-10T09:12:39;101966.06;;;23.79;100.00
36726;BME280;44936;52.086;5.150;2023-06-10T09:15:06;101970.66;;;24.00;100.00
36726;BME280;44936;52.086;5.150;2023-06-10T09:17:31;101947.00;;;24.12;100.00
36726;BME280;44936;52.086;5.150;2023-06-10T09:19:59;101970.88;;;24.19;100.00
36726;BME280;44936;52.086;5.150;2023-06-10T09:22:25;101955.38;;;24.27;100.00
36726;BME280;44936;52.086;5.150;2023-06-10T09:24:53;101931.16;;;24.30;100.00
36726;BME280;44936;52.086;5.150;2023-06-10T09:27:29;101920.66;;;24.24;100.00
36726;BME280;44936;52.086;5.150;2023-06-10T09:29:55;101931.66;;;24.42;100.00
36726;BME280;44936;52.086;5.150;2023-06-10T09:32:23;101941.22;;;24.49;100.00
36726;BME280;44936;52.086;5.150;2023-06-10T09:34:49;101958.50;;;24.65;100.00
36726;BME280;44936;52.086;5.150;2023-06-10T09:37:25;101935.56;;;24.80;100.00
36726;BME280;44936;52.086;5.150;2023-06-10T09:40:07;101926.16;;;24.92;100.00
36726;BME280;44936;52.086;5.150;2023-06-10T09:42:35;101860.03;;;24.89;100.00
36726;BME280;44936;52.086;5.150;2023-06-10T09:45:05;101896.28;;;25.23;100.00
36726;BME280;44936;52.086;5.150;2023-06-10T09:47:30;101887.97;;;25.29;100.00
36726;BME280;44936;52.086;5.150;2023-06-10T09:49:56;101865.41;;;25.33;100.00
36726;BME280;44936;52.086;5.150;2023-06-10T09:52:26;101891.16;;;25.38;100.00
36726;BME280;44936;52.086;5.150;2023-06-10T09:54:52;101928.84;;;25.57;100.00
36726;BME280;44936;52.086;5.150;2023-06-10T09:57:19;101880.59;;;25.76;100.00
36726;BME280;44936;52.086;5.150;2023-06-10T09:59:45;101852.66;;;25.80;100.00
36726;BME280;44936;52.086;5.150;2023-06-10T10:02:17;101800.91;;;25.75;100.00
36726;BME280;44936;52.086;5.150;2023-06-10T10:04:44;101856.00;;;25.85;100.00
36726;BME280;44936;52.086;5.150;2023-06-10T10:07:13;101853.91;;;25.92;100.00
36726;BME280;44936;52.086;5.150;2023-06-10T10:09:39;101848.31;;;25.96;100.00
36726;BME280;44936;52.086;5.150;2023-06-10T10:12:09;101865.91;;;26.04;100.00
36726;BME280;44936;52.086;5.150;2023-06-10T10:14:36;101866.53;;;26.10;100.00
36726;BME280;44936;52.086;5.150;2023-06-10T10:17:04;101844.84;;;26.13;100.00
36726;BME280;44936;52.086;5.150;2023-06-10T10:19:37;101842.50;;;26.26;100.00
36726;BME280;44936;52.086;5.150;2023-06-10T10:22:07;101854.91;;;26.29;100.00
36726;BME280;44936;52.086;5.150;2023-06-10T10:24:42;101746.63;;;26.25;100.00
36726;BME280;44936;52.086;5.150;2023-06-10T10:27:40;101761.66;;;26.29;100.00
36726;BME280;44936;52.086;5.150;2023-06-10T10:30:09;101787.25;;;26.38;100.00
36726;BME280;44936;52.086;5.150;2023-06-10T10:32:44;101701.97;;;26.40;100.00
36726;BME280;44936;52.086;5.150;2023-06-10T10:35:20;101762.44;;;26.50;100.00
36726;BME280;44936;52.086;5.150;2023-06-10T10:37:52;101799.66;;;26.59;100.00
36726;BME280;44936;52.086;5.150;2023-06-10T10:40:19;101791.66;;;26.58;100.00
36726;BME280;44936;52.086;5.150;2023-06-10T10:42:47;101754.66;;;26.63;100.00
36726;BME280;44936;52.086;5.150;2023-06-10T10:45:13;101723.25;;;26.63;100.00
36726;BME280;44936;52.086;5.150;2023-06-10T10:47:39;101788.47;;;26.68;100.00
36726;BME280;44936;52.086;5.150;2023-06-10T10:50:28;101707.25;;;26.60;100.00
36726;BME280;44936;52.086;5.150;2023-06-10T10:52:59;101753.72;;;26.64;100.00
36726;BME280;44936;52.086;5.150;2023-06-10T10:55:26;101738.34;;;26.66;100.00
36726;BME280;44936;52.086;5.150;2023-06-10T10:57:59;101745.47;;;26.67;100.00
36726;BME280;44936;52.086;5.150;2023-06-10T11:00:32;101754.78;;;26.78;100.00
36726;BME280;44936;52.086;5.150;2023-06-10T11:02:58;101650.91;;;26.74;100.00
36726;BME280;44936;52.086;5.150;2023-06-10T11:05:41;101709.16;;;26.75;100.00
36726;BME280;44936;52.086;5.150;2023-06-10T11:08:10;101684.63;;;26.99;100.00
36726;BME280;44936;52.086;5.150;2023-06-10T11:10:40;101697.78;;;26.88;100.00
36726;BME280;44936;52.086;5.150;2023-06-10T11:13:10;101764.91;;;26.91;100.00
36726;BME280;44936;52.086;5.150;2023-06-10T11:15:47;101643.38;;;26.81;100.00
36726;BME280;44936;52.086;5.150;2023-06-10T11:18:23;101746.38;;;26.85;100.00
36726;BME280;44936;52.086;5.150;2023-06-10T11:31:33;101638.75;;;27.00;100.00
36726;BME280;44936;52.086;5.150;2023-06-10T11:34:04;101693.97;;;27.09;100.00
36726;BME280;44936;52.086;5.150;2023-06-10T11:36:31;101706.59;;;27.08;100.00
36726;BME280;44936;52.086;5.150;2023-06-10T11:41:27;101728.59;;;27.17;100.00
36726;BME280;44936;52.086;5.150;2023-06-10T11:43:54;101709.66;;;27.18;100.00
36726;BME280;44936;52.086;5.150;2023-06-10T11:46:23;101740.88;;;27.22;100.00
36726;BME280;44936;52.086;5.150;2023-06-10T11:48:52;101732.63;;;27.25;100.00
36726;BME280;44936;52.086;5.150;2023-06-10T11:51:19;101652.59;;;27.27;100.00
36726;BME280;44936;52.086;5.150;2023-06-10T11:53:45;101736.41;;;27.38;100.00
36726;BME280;44936;52.086;5.150;2023-06-10T11:56:11;101711.38;;;27.36;100.00
36726;BME280;44936;52.086;5.150;2023-06-10T11:58:36;101713.09;;;27.37;100.00
36726;BME280;44936;52.086;5.150;2023-06-10T12:01:03;101693.28;;;27.38;100.00
36726;BME280;44936;52.086;5.150;2023-06-10T12:03:36;101599.28;;;27.34;100.00
36726;BME280;44936;52.086;5.150;2023-06-10T12:06:05;101676.22;;;27.40;100.00
36726;BME280;44936;52.086;5.150;2023-06-10T12:08:34;101620.91;;;27.32;100.00
36726;BME280;44936;52.086;5.150;2023-06-10T12:11:06;101698.06;;;27.33;100.00
36726;BME280;44936;52.086;5.150;2023-06-10T12:13:31;101676.22;;;27.40;100.00
36726;BME280;44936;52.086;5.150;2023-06-10T12:16:07;101634.97;;;27.37;100.00
36726;BME280;44936;52.086;5.150;2023-06-10T12:18:32;101575.22;;;27.31;100.00
36726;BME280;44936;52.086;5.150;2023-06-10T12:20:58;101600.91;;;27.36;100.00
36726;BME280;44936;52.086;5.150;2023-06-10T12:23:24;101599.47;;;27.31;100.00
36726;BME280;44936;52.086;5.150;2023-06-10T12:26:19;101655.09;;;27.48;100.00
36726;BME280;44936;52.086;5.150;2023-06-10T12:28:50;101580.78;;;27.44;100.00
36726;BME280;44936;52.086;5.150;2023-06-10T12:31:16;101600.06;;;27.52;100.00
36726;BME280;44936;52.086;5.150;2023-06-10T12:33:41;101655.38;;;27.59;100.00
36726;BME280;44936;52.086;5.150;2023-06-10T12:36:16;101602.59;;;27.55;100.00
36726;BME280;44936;52.086;5.150;2023-06-10T12:38:42;101641.63;;;27.63;100.00
36726;BME280;44936;52.086;5.150;2023-06-10T12:41:07;101522.19;;;27.63;100.00
36726;BME280;44936;52.086;5.150;2023-06-10T12:43:33;101619.53;;;27.74;100.00
36726;BME280;44936;52.086;5.150;2023-06-10T12:46:09;101557.91;;;27.82;100.00
36726;BME280;44936;52.086;5.150;2023-06-10T12:48:35;101571.06;;;27.88;100.00
36726;BME280;44936;52.086;5.150;2023-06-10T12:51:00;101621.50;;;27.86;100.00
36726;BME280;44936;52.086;5.150;2023-06-10T12:53:27;101557.38;;;27.91;100.00
36726;BME280;44936;52.086;5.150;2023-06-10T12:55:53;101546.75;;;27.74;100.00
36726;BME280;44936;52.086;5.150;2023-06-10T12:58:20;101553.28;;;28.00;100.00
36726;BME280;44936;52.086;5.150;2023-06-10T13:00:45;101652.63;;;28.08;100.00